Nearby METAR Reports

 

KPBH - Phillips, Wisconsin, USA
Distance from station: SE 13mi, 21km
Updated: 10/22/2017 4:55am
Overcast
Overcast
 Wind from WSW
Wind: WSW 7 mph , 11 km/h
Temperature: 50°F , 10°C
Wind Chill: 47°F , 8°C
Dew Point: 50°F , 10°C
Humidity: 100%
Barometer: 29.81 inHg , 1009.5 hPa
Clouds: Overcast
Visibility: 10 miles , 16 km
Cloud details: Mostly cloudy 800 ft
Overcast 1300 ft
2017/10/22 09:55 KPBH 220955Z AUTO 24006KT 10SM BKN008 OVC013 10/10 A2981 RMK AO2 P0001 T01000100
KRCX - Ladysmith/Rusk, Wisconsin, USA
Distance from station: SW 29mi, 46km
Updated: 10/22/2017 4:55am
Overcast
Overcast
 Wind from WSW
Wind: WSW 10 mph , 17 km/h
Temperature: 52°F , 11°C
Dew Point: 48°F , 9°C
Humidity: 88%
Barometer: 29.87 inHg , 1011.5 hPa
Clouds: Overcast
Visibility: 10 miles , 16 km
Cloud details: Overcast 4800 ft
2017/10/22 09:55 KRCX 220955Z AUTO 24009KT 10SM OVC048 11/09 A2987 RMK AO2 P0001 T01050089
 
KD25 - Manitowish Water, Wisconsin, USA
Distance from station: ENE 41mi, 66km
Updated: 10/22/2017 4:55am
Drizzle, Overcast
Drizzle, Overcast
 Wind from W
Wind: W 13 mph , 20 km/h, Gust: 22 mph , 35 km/h
Temperature: 52°F , 11°C
Dew Point: 52°F , 11°C
Humidity: 100%
Barometer: 29.79 inHg , 1008.8 hPa
Summary: Drizzle
Clouds: Overcast
Visibility: 4 miles , 6 km
Cloud details: Overcast 400 ft
2017/10/22 09:55 KD25 220955Z AUTO 26011G19KT 4SM DZ OVC004 11/11 A2979 RMK AO2 P0001 T01100110
KHYR - Hayward, Wisconsin, USA
Distance from station: WNW 42mi, 68km
Updated: 10/22/2017 4:53am
Few Clouds
Few Clouds
 Wind from WSW
Wind: WSW 7 mph , 11 km/h
Temperature: 48°F , 9°C
Wind Chill: 45°F , 7°C
Dew Point: 45°F , 7°C
Humidity: 87%
Barometer: 29.83 inHg , 1010.2 hPa
Clouds: Few Clouds
Visibility: 10 miles , 16 km
Cloud details: Few Clouds 7500 ft
2017/10/22 09:53 KHYR 220953Z AUTO 24006KT 10SM FEW075 09/07 A2983 RMK AO2 SLP104 T00940067
 
KARV - Minocqua/Woodruf, Wisconsin, USA
Distance from station: E 44mi, 71km
Updated: 10/22/2017 4:55am
Light rain, Overcast
Light rain, Overcast
 Wind from W
Wind: W 13 mph , 20 km/h, Gust: 21 mph , 33 km/h
Temperature: 57°F , 14°C
Dew Point: 55°F , 13°C
Humidity: 94%
Barometer: 29.80 inHg , 1009.1 hPa
Summary: Light rain
Clouds: Overcast
Visibility: 7 miles , 11 km
Cloud details: Overcast 600 ft
2017/10/22 09:55 KARV 220955Z AUTO 27011G18KT 7SM -RA OVC006 14/13 A2980 RMK AO2 T01380127
KTKV - Tomahawk Regnl, Wisconsin, USA
Distance from station: ESE 46mi, 74km
Updated: 10/22/2017 4:55am
Overcast
Overcast
 Wind from W
Wind: W 10 mph , 17 km/h, Gust: 16 mph , 26 km/h
Temperature: 52°F , 11°C
Dew Point: 50°F , 10°C
Humidity: 94%
Barometer: 29.84 inHg , 1010.5 hPa
Clouds: Overcast
Visibility: 7 miles , 11 km
Cloud details: Mostly cloudy 800 ft
Overcast 1400 ft
2017/10/22 09:55 KTKV 220955Z AUTO 27009G14KT 7SM BKN008 OVC014 11/10 A2984 RMK AO2 T01100101